aviador You're here:

KHBI Decoded Metar

ASHEBORO MUNI in NC, USA
Report Time2018-04-23 22:40:00
UTC Time2018-04-23 22:50:47
Flight Rules vfr VFR
Wind100° at 05 kt
W.Decomp.*RWY 03: 1.0 kt HW 4.9 kt RCW
W.Rank100° ranks 35
Current wind is above 100° avg. (3.9)
Visibility9999 m
Phenomena:Light Rain
Clouds:Scattered 037 Hf
Overcast 047 Hf
Expected CloudBase > 800 ft AGL from Temp-Dew spread
Ceiling4,700 ft
Temp14°C (ISA 0)
Dew Point12°C (88% RH)
AAT12.8°C
QNH1022 hPa
Density Alt600 ft
Elevation673 ft
Report Wrong Elevation
Raw Report
KHBI 232240Z AUTO 10005KT 7SM -RA SCT037 OVC047 14/12 A3018 RMK
AO2 P0002 T01400121=

Extra information for KHBI:More info

Metar Taf Metar & Taf Last 4 Metars F.Rules Stats Wind Profile Meteogram Temp Stats Airport Information Weather charts Add Link Nearby VenuesMetar ALERT Operation Metar Decoded Social comments

AIRNAV info for KHBI